Aérodrome :
LOGIN :

S'inscrire | Disclaimer

   EN    FR    IT 

 










Légende :    VFR   VFR Marginal   IFR   IFR Intensif   IFR Très Intensif
Visi : 
Plafond : 
>= 8 km
>= 3000ft
5 à 8 km
1000 à 3000 ft
1500m à 5 km
500 à 1000 ft
800 à 1500m
200 à 500 ft
< 800m
< 200 ft
Symboles :   Orages  Brouillard  Fortes neiges  Fortes précipitations  Vent > 20 kt
SIGMETs :   Divers  Orages  Givrage  Turbulence  Onde Orograph.  Cendres Volcan.






- Altitude de l'aérodrome : 1830 ft


EBLB - Butgenbach Elsenborn

DERNIER METAR :
  • 260525Z AUTO 00000KT 2200 BR FEW001/// OVC019/// 00/00 Q1020 YLO

METARs EXPIRÉS :
  • 260516Z AUTO 00000KT 1500 BR FEW001/// OVC019/// 00/00 Q1020 AMB
  • 260455Z AUTO VRB01KT 2000 BR FEW001/// OVC019/// 00/00 Q1020 YLO
  • 260425Z AUTO VRB01KT 1000 FG FEW001/// OVC020/// M00/M00 Q1020 AMB
  • 260355Z AUTO VRB01KT 0250 FG OVC001/// M01/M01 Q1020 RED
  • 260325Z AUTO VRB01KT 0100 FG OVC001/// M00/M00 Q1020 RED
  • 260255Z AUTO VRB01KT 0100 FG OVC002/// M00/M00 Q1020 RED

Prévision TAF périmée.



MET'MAP, la Météo Aéronautique d'un coup d'oeil ! - Copyright ORBIFLY Décembre 2007 - Disclaimer

ORBIFLY MET'MAP TEAM :

Programmation & Développement : Alexandra Zaïnal
Sur une idée originale de : Baudouin d'Aumeries
Assistance à la programmation : Marc-Olivier Méhu
Soutien technique & logistique : Manuel Goepfert

Contact : metmap@orbifly.com




SOURCES & CREDITS :

   NOAA